Time;durP1;ratioP1;P1;durP2;ratioP2;P2;SDS_P1;SDS_P2;PMS_P1;PMS_P2;Temp;Humidity;BMP_temperature;BMP_pressure;BME280_temperature;BME280_humidity;BME280_pressure;Samples;Min_cycle;Max_cycle;Signal;HPM_P1;HPM_P2
2023/12/24 00:01:43;;;;;;;2.85;0.93;;;;;;;6.69;61.57;99975.41;5012649;28;20052;-39
2023/12/24 00:04:10;;;;;;;7.40;0.90;;;;;;;6.87;61.31;99972.72;5013405;28;20037;-41
2023/12/24 00:06:38;;;;;;;2.85;1.17;;;;;;;6.98;60.98;99980.81;5015259;28;20088;-39
2023/12/24 00:09:03;;;;;;;4.05;0.77;;;;;;;7.04;60.95;99984.00;5014730;28;20059;-42
2023/12/24 00:11:30;;;;;;;1.70;0.77;;;;;;;6.95;60.90;99980.97;5015426;28;20030;-40
2023/12/24 00:13:55;;;;;;;6.63;1.08;;;;;;;6.98;60.52;99986.06;5013586;28;20095;-42
2023/12/24 00:16:21;;;;;;;3.13;0.98;;;;;;;6.99;60.44;99985.13;5013777;28;20029;-42
2023/12/24 00:18:46;;;;;;;5.95;0.98;;;;;;;6.93;60.84;99982.00;5012674;28;20124;-40
2023/12/24 00:21:13;;;;;;;1.85;0.85;;;;;;;6.96;60.76;99976.56;5015170;28;20053;-40
2023/12/24 00:23:38;;;;;;;4.10;1.00;;;;;;;6.74;61.65;99964.69;5009824;28;20060;-39
2023/12/24 00:26:04;;;;;;;4.68;1.60;;;;;;;6.76;61.23;99975.06;5011906;28;20052;-39
2023/12/24 00:28:29;;;;;;;4.25;1.20;;;;;;;6.65;61.63;99973.03;5013805;28;20037;-40
2023/12/24 00:30:54;;;;;;;1.63;0.70;;;;;;;6.78;61.65;99962.75;5009124;28;20048;-40
2023/12/24 00:33:20;;;;;;;5.05;1.23;;;;;;;6.70;61.57;99977.09;5015429;28;20040;-43
2023/12/24 00:35:47;;;;;;;1.02;0.65;;;;;;;6.65;61.97;99978.28;5013710;28;20041;-41
2023/12/24 00:38:13;;;;;;;3.83;0.98;;;;;;;6.65;61.77;99983.50;5014860;28;20983;-40
2023/12/24 00:40:38;;;;;;;1.27;0.85;;;;;;;6.39;62.45;99983.09;5020108;28;20021;-39
2023/12/24 00:43:04;;;;;;;2.22;0.70;;;;;;;6.15;62.76;99988.69;5012242;28;20079;-41
2023/12/24 00:45:29;;;;;;;3.05;0.77;;;;;;;6.40;62.59;99985.66;5015275;28;20034;-41
2023/12/24 00:47:55;;;;;;;2.50;0.63;;;;;;;6.62;62.14;99979.25;5015001;28;20047;-40
2023/12/24 00:50:21;;;;;;;1.60;0.98;;;;;;;6.30;62.40;99987.03;5006166;28;20032;-41
2023/12/24 00:52:46;;;;;;;3.47;0.90;;;;;;;6.29;62.64;99979.28;5015770;28;20025;-43
2023/12/24 00:55:12;;;;;;;3.70;0.82;;;;;;;6.32;62.73;99986.97;5013809;28;20036;-39
2023/12/24 00:57:40;;;;;;;2.95;1.20;;;;;;;6.70;61.83;99976.22;5009591;28;20031;-42
2023/12/24 01:00:06;;;;;;;4.10;0.68;;;;;;;6.79;61.37;99975.75;5010168;28;20034;-42
2023/12/24 01:02:34;;;;;;;3.38;0.77;;;;;;;6.69;61.53;99978.03;5013057;28;20373;-40
2023/12/24 01:05:00;;;;;;;8.77;1.23;;;;;;;6.48;62.24;99981.75;5010087;28;20531;-40
2023/12/24 01:07:25;;;;;;;7.05;1.23;;;;;;;6.44;61.90;99972.38;5015066;28;20040;-40
2023/12/24 01:09:51;;;;;;;1.80;0.63;;;;;;;6.04;62.43;99983.16;5013282;28;20495;-42
2023/12/24 01:12:16;;;;;;;4.57;0.82;;;;;;;5.84;63.89;99984.97;5023981;28;21600;-40
2023/12/24 01:14:42;;;;;;;2.85;1.02;;;;;;;6.03;63.85;99979.69;5018449;28;20189;-40
2023/12/24 01:17:07;;;;;;;7.93;0.93;;;;;;;6.03;63.60;99974.47;5016727;28;20033;-40
2023/12/24 01:19:33;;;;;;;4.95;0.82;;;;;;;5.97;63.70;99977.38;5012073;28;20038;-38
2023/12/24 01:21:58;;;;;;;2.67;0.50;;;;;;;5.46;64.71;99988.56;5016698;28;20036;-40
2023/12/24 01:24:25;;;;;;;4.00;1.00;;;;;;;5.82;64.40;99983.38;5013484;28;20038;-40
2023/12/24 01:26:50;;;;;;;4.97;0.73;;;;;;;5.38;66.19;100001.13;5018626;28;20082;-41
2023/12/24 01:29:16;;;;;;;4.13;0.50;;;;;;;5.33;65.44;99993.50;5014089;28;20033;-40
2023/12/24 01:31:41;;;;;;;2.17;0.50;;;;;;;5.78;65.00;99995.72;5014228;28;20033;-40
2023/12/24 01:34:06;;;;;;;5.80;1.10;;;;;;;5.65;65.49;99991.09;5017074;28;20035;-41
2023/12/24 01:36:34;;;;;;;2.53;0.68;;;;;;;5.63;65.23;99987.72;5017737;28;20037;-41
2023/12/24 01:39:00;;;;;;;4.38;0.93;;;;;;;5.55;65.71;99991.63;5016603;28;20037;-40
2023/12/24 01:41:25;;;;;;;3.10;0.88;;;;;;;5.52;65.61;99986.59;5018832;28;20024;-40
2023/12/24 01:43:51;;;;;;;2.92;0.80;;;;;;;5.42;66.12;99986.19;5017708;28;20045;-41
2023/12/24 01:46:20;;;;;;;3.78;0.70;;;;;;;5.66;65.66;99989.34;5015642;28;20079;-41
2023/12/24 01:48:46;;;;;;;2.97;0.82;;;;;;;5.42;66.44;99975.75;5013733;28;20488;-41
2023/12/24 01:51:12;;;;;;;3.97;0.63;;;;;;;5.47;65.67;99981.56;5013974;28;20435;-41
2023/12/24 01:53:38;;;;;;;1.80;0.50;;;;;;;5.54;65.56;99974.28;5017197;28;20399;-40
2023/12/24 01:56:05;;;;;;;3.95;0.65;;;;;;;5.35;65.79;99969.97;5014507;28;20025;-41
2023/12/24 01:58:31;;;;;;;2.38;0.90;;;;;;;5.51;65.61;99971.84;5012631;28;20504;-40
2023/12/24 02:00:57;;;;;;;2.47;0.75;;;;;;;5.45;65.79;99972.97;5013941;28;20048;-40
2023/12/24 02:03:23;;;;;;;2.53;1.00;;;;;;;5.40;65.47;99965.38;5015675;28;20034;-41
2023/12/24 02:05:50;;;;;;;2.13;0.65;;;;;;;5.39;65.99;99963.66;5013251;28;20169;-41
2023/12/24 02:08:18;;;;;;;2.50;1.10;;;;;;;5.26;66.18;99970.41;5012809;28;20029;-41
2023/12/24 02:10:44;;;;;;;1.67;0.60;;;;;;;5.45;65.77;99968.59;5030905;28;20049;-40
2023/12/24 02:13:11;;;;;;;3.00;1.65;;;;;;;5.46;65.44;99967.69;5029739;28;20400;-41
2023/12/24 02:15:36;;;;;;;3.83;0.85;;;;;;;5.38;65.71;99972.41;5017191;28;20550;-41
2023/12/24 02:18:04;;;;;;;1.10;0.50;;;;;;;5.47;65.48;99978.94;5012966;28;20034;-39
2023/12/24 02:20:30;;;;;;;0.80;0.47;;;;;;;5.28;65.87;99977.25;5011647;28;20025;-39
2023/12/24 02:22:55;;;;;;;0.77;0.47;;;;;;;5.43;65.33;99986.09;5014704;28;20705;-38
2023/12/24 02:25:21;;;;;;;0.70;0.35;;;;;;;5.48;65.15;99985.88;5018956;28;20068;-39
2023/12/24 02:28:01;;;;;;;1.65;0.38;;;;;;;5.46;65.37;99982.47;5012516;28;20109;-39
2023/12/24 02:30:35;;;;;;;0.98;0.63;;;;;;;5.16;65.87;99965.63;5016341;28;24112;-39
2023/12/24 02:33:03;;;;;;;0.73;0.40;;;;;;;5.23;65.84;99980.97;5014169;28;20037;-39
2023/12/24 02:35:33;;;;;;;2.78;0.60;;;;;;;5.32;65.65;99986.59;5016012;28;20025;-39
2023/12/24 02:37:58;;;;;;;1.75;0.35;;;;;;;5.37;65.96;99988.97;5013170;28;20036;-39
2023/12/24 02:40:24;;;;;;;0.50;0.30;;;;;;;5.20;65.96;99995.03;5020766;28;20025;-37
2023/12/24 02:42:49;;;;;;;0.68;0.30;;;;;;;5.10;65.63;99994.59;5012180;28;20411;-39
2023/12/24 02:45:15;;;;;;;0.65;0.30;;;;;;;5.18;65.89;99989.88;5016389;28;20033;-39
2023/12/24 02:47:40;;;;;;;0.40;0.40;;;;;;;5.29;65.40;99985.91;5016836;28;20132;-40
2023/12/24 02:50:06;;;;;;;0.50;0.38;;;;;;;5.40;65.39;99991.44;5019083;28;20033;-39
2023/12/24 02:52:31;;;;;;;1.27;0.63;;;;;;;5.33;65.31;99993.50;5024107;28;20134;-40
2023/12/24 02:54:57;;;;;;;0.55;0.50;;;;;;;5.34;65.42;99982.16;5027803;28;20491;-39
2023/12/24 02:57:22;;;;;;;0.40;0.28;;;;;;;5.43;65.16;99988.69;5027625;28;20056;-39
2023/12/24 02:59:48;;;;;;;1.75;0.43;;;;;;;5.41;65.03;99995.75;5026723;28;20021;-40
2023/12/24 03:02:13;;;;;;;0.32;0.32;;;;;;;5.47;64.76;99994.59;5022943;28;20053;-40
2023/12/24 03:04:39;;;;;;;1.13;0.47;;;;;;;5.36;64.92;99986.47;5018250;28;20033;-39
2023/12/24 03:07:04;;;;;;;0.90;0.60;;;;;;;5.52;64.88;99986.59;5026517;28;20045;-40
2023/12/24 03:09:29;;;;;;;1.20;0.60;;;;;;;5.44;64.99;99987.78;5024845;28;20045;-39
2023/12/24 03:11:55;;;;;;;0.90;0.50;;;;;;;5.46;64.66;99985.09;5024218;28;20120;-40
2023/12/24 03:14:20;;;;;;;1.00;0.30;;;;;;;5.51;64.85;99985.72;5024918;28;20030;-40
2023/12/24 03:16:46;;;;;;;2.40;0.38;;;;;;;5.61;64.71;99986.13;5025620;28;20025;-39
2023/12/24 03:19:11;;;;;;;2.33;0.43;;;;;;;5.68;64.30;99987.50;5024304;28;20030;-40
2023/12/24 03:21:42;;;;;;;1.27;0.40;;;;;;;5.73;63.90;99980.28;5018913;28;20099;-40
2023/12/24 03:24:08;;;;;;;1.17;0.50;;;;;;;5.58;63.63;99986.25;5024710;28;20064;-40
2023/12/24 03:26:34;;;;;;;0.63;0.40;;;;;;;5.90;63.82;99994.25;5027988;28;20516;-40
2023/12/24 03:29:00;;;;;;;0.75;0.60;;;;;;;6.04;63.56;99988.41;5025148;28;20049;-40
2023/12/24 03:31:26;;;;;;;0.80;0.35;;;;;;;6.07;62.97;99983.00;5021921;28;20080;-40
2023/12/24 03:33:52;;;;;;;0.63;0.30;;;;;;;5.86;62.82;99975.31;5025851;28;20037;-39
2023/12/24 03:36:17;;;;;;;0.90;0.40;;;;;;;5.64;63.47;99965.94;5024402;28;20069;-39
2023/12/24 03:38:43;;;;;;;3.55;0.52;;;;;;;5.57;63.79;99964.56;5027848;28;20033;-39
2023/12/24 03:41:08;;;;;;;0.98;0.40;;;;;;;5.64;64.11;99954.66;5026275;28;20377;-40
2023/12/24 03:43:34;;;;;;;0.65;0.40;;;;;;;5.62;64.08;99953.88;5027023;28;20029;-40
2023/12/24 03:45:59;;;;;;;0.50;0.40;;;;;;;5.35;64.02;99949.09;5025610;28;20397;-40
2023/12/24 03:48:24;;;;;;;0.52;0.40;;;;;;;5.56;64.22;99947.22;5025982;28;20067;-39
2023/12/24 03:50:50;;;;;;;0.95;0.50;;;;;;;5.37;64.33;99947.25;5025557;28;20096;-39
2023/12/24 03:53:15;;;;;;;0.63;0.35;;;;;;;5.48;64.18;99944.97;5026199;28;20043;-39
2023/12/24 03:55:41;;;;;;;2.20;0.40;;;;;;;5.47;64.19;99935.44;5017549;28;20109;-39
2023/12/24 03:58:06;;;;;;;0.80;0.47;;;;;;;5.70;64.12;99930.84;5020939;28;20033;-40
2023/12/24 04:00:31;;;;;;;0.43;0.30;;;;;;;5.84;63.60;99929.28;5022548;28;20044;-41
2023/12/24 04:02:59;;;;;;;0.77;0.35;;;;;;;5.89;63.17;99933.38;5023347;28;20476;-42
2023/12/24 04:05:25;;;;;;;0.60;0.45;;;;;;;6.06;63.05;99927.31;5017334;28;20044;-42
2023/12/24 04:07:51;;;;;;;1.58;0.45;;;;;;;5.90;62.75;99923.75;5028675;28;20034;-41
2023/12/24 04:10:16;;;;;;;0.28;0.22;;;;;;;5.90;63.03;99921.97;5027006;28;20036;-39
2023/12/24 04:12:42;;;;;;;0.55;0.20;;;;;;;5.92;63.09;99917.53;5023848;28;20044;-42
2023/12/24 04:15:08;;;;;;;0.80;0.38;;;;;;;5.97;62.68;99919.94;5020360;28;20029;-40
2023/12/24 04:17:34;;;;;;;0.85;0.40;;;;;;;5.89;62.72;99919.47;5028578;28;20045;-42
2023/12/24 04:20:04;;;;;;;0.52;0.30;;;;;;;5.98;63.09;99921.59;5021906;28;20022;-40
2023/12/24 04:22:29;;;;;;;0.75;0.40;;;;;;;5.86;62.71;99923.09;5026146;28;20060;-39
2023/12/24 04:24:56;;;;;;;0.30;0.30;;;;;;;5.88;62.77;99920.38;5021119;28;20687;-39
2023/12/24 04:27:21;;;;;;;0.38;0.32;;;;;;;5.76;63.31;99920.09;5026125;28;20527;-39
2023/12/24 04:29:46;;;;;;;0.35;0.30;;;;;;;5.79;63.44;99922.56;5037244;28;20068;-39
2023/12/24 04:32:16;;;;;;;0.20;0.20;;;;;;;5.83;62.94;99910.19;5020961;28;20096;-39
2023/12/24 04:34:42;;;;;;;0.80;0.40;;;;;;;5.71;63.17;99916.88;5025420;28;20036;-39
2023/12/24 04:37:08;;;;;;;0.25;0.20;;;;;;;5.79;63.40;99909.50;5023967;28;20026;-39
2023/12/24 04:39:33;;;;;;;0.20;0.20;;;;;;;5.86;63.34;99912.66;5021919;28;20384;-39
2023/12/24 04:41:59;;;;;;;13.02;5.18;;;;;;;5.87;63.32;99911.72;5023061;28;20072;-39
2023/12/24 04:44:24;;;;;;;1.10;0.47;;;;;;;5.97;62.80;99909.47;5023739;28;20065;-39
2023/12/24 04:46:50;;;;;;;0.20;0.20;;;;;;;5.99;62.83;99897.16;5025691;28;20443;-40
2023/12/24 04:49:15;;;;;;;0.30;0.30;;;;;;;6.13;62.52;99908.69;5024450;28;20029;-39
2023/12/24 04:51:41;;;;;;;0.13;0.13;;;;;;;6.17;62.14;99905.00;5025947;28;20026;-39
2023/12/24 04:54:06;;;;;;;0.25;0.20;;;;;;;6.22;62.17;99903.00;5026360;28;20082;-39
2023/12/24 04:56:32;;;;;;;0.22;0.20;;;;;;;6.00;62.30;99904.09;5026154;28;20034;-39
2023/12/24 04:58:58;;;;;;;0.93;0.68;;;;;;;6.06;62.22;99902.94;5024330;28;20057;-39
2023/12/24 05:01:24;;;;;;;0.68;0.30;;;;;;;6.07;62.50;99902.88;5021598;28;20036;-39
2023/12/24 05:03:49;;;;;;;0.60;0.32;;;;;;;6.05;62.53;99896.88;5022525;28;20021;-40
2023/12/24 05:06:14;;;;;;;0.90;0.47;;;;;;;6.08;62.47;99894.13;5018508;28;20025;-43
2023/12/24 05:08:40;;;;;;;0.30;0.30;;;;;;;6.13;62.13;99916.53;5020482;28;20030;-41
2023/12/24 05:11:07;;;;;;;0.40;0.30;;;;;;;6.14;62.00;99907.75;5021772;28;20044;-41
2023/12/24 05:13:33;;;;;;;0.35;0.20;;;;;;;6.27;61.75;99901.00;5027489;28;20057;-41
2023/12/24 05:15:59;;;;;;;0.13;0.13;;;;;;;6.36;61.73;99910.94;5022276;28;20361;-40
2023/12/24 05:18:24;;;;;;;1.85;0.90;;;;;;;6.37;61.42;99899.56;5021565;28;20087;-41
2023/12/24 05:20:50;;;;;;;1.55;0.75;;;;;;;6.43;61.71;99902.78;5019231;28;20030;-40
2023/12/24 05:23:17;;;;;;;1.75;0.90;;;;;;;6.49;61.54;99894.59;5028685;28;20030;-40
2023/12/24 05:25:42;;;;;;;2.70;1.05;;;;;;;6.50;61.47;99891.91;5024578;28;20079;-41
2023/12/24 05:28:09;;;;;;;0.80;0.40;;;;;;;6.52;61.05;99899.66;5025133;28;20025;-40
2023/12/24 05:30:35;;;;;;;2.33;0.55;;;;;;;6.57;60.98;99902.88;5025173;28;20036;-40
2023/12/24 05:33:00;;;;;;;2.30;0.85;;;;;;;6.60;61.18;99896.63;5024361;28;20025;-39
2023/12/24 05:35:25;;;;;;;2.63;0.65;;;;;;;6.61;60.70;99899.16;5025092;28;20056;-40
2023/12/24 05:37:51;;;;;;;1.20;0.50;;;;;;;6.64;60.67;99893.75;5020415;28;20396;-41
2023/12/24 05:40:16;;;;;;;0.35;0.35;;;;;;;6.63;60.64;99886.00;5023600;28;20064;-39
2023/12/24 05:42:42;;;;;;;0.40;0.32;;;;;;;6.62;60.71;99879.91;5027274;28;20390;-41
2023/12/24 05:45:10;;;;;;;2.03;0.80;;;;;;;6.61;60.50;99885.25;5023574;28;20041;-43
2023/12/24 05:47:36;;;;;;;4.05;1.38;;;;;;;6.57;60.93;99884.59;5021318;28;20039;-39
2023/12/24 05:50:04;;;;;;;3.42;1.35;;;;;;;6.55;60.84;99866.34;5024175;28;20129;-41
2023/12/24 05:52:29;;;;;;;3.33;1.83;;;;;;;6.54;60.69;99864.66;5024555;28;20033;-43
2023/12/24 05:54:55;;;;;;;2.55;1.00;;;;;;;6.56;61.05;99864.59;5026710;28;20044;-39
2023/12/24 05:57:20;;;;;;;0.68;0.32;;;;;;;6.57;61.21;99855.81;5024302;28;20034;-41
2023/12/24 05:59:46;;;;;;;2.00;0.70;;;;;;;6.60;61.08;99849.56;5022454;28;20104;-40
2023/12/24 06:02:11;;;;;;;1.58;0.38;;;;;;;6.60;60.81;99853.00;5022664;28;20029;-40
2023/12/24 06:04:37;;;;;;;0.73;0.30;;;;;;;6.63;60.71;99849.41;5017713;28;20520;-41
2023/12/24 06:07:04;;;;;;;0.32;0.30;;;;;;;6.66;60.73;99850.06;5016096;28;20041;-39
2023/12/24 06:09:30;;;;;;;0.10;0.10;;;;;;;6.68;60.58;99848.22;5025535;28;20041;-40
2023/12/24 06:11:55;;;;;;;0.80;0.17;;;;;;;6.67;60.76;99851.75;5017448;28;20061;-39
2023/12/24 06:14:21;;;;;;;1.20;0.35;;;;;;;6.63;60.84;99841.56;5027294;28;20672;-41
2023/12/24 06:16:46;;;;;;;0.90;0.45;;;;;;;6.60;60.76;99845.19;5024291;28;20029;-40
2023/12/24 06:19:11;;;;;;;0.73;0.63;;;;;;;6.59;61.10;99843.50;5028358;28;20029;-39
2023/12/24 06:21:37;;;;;;;2.28;0.70;;;;;;;6.57;60.93;99834.91;5032647;28;20026;-40
2023/12/24 06:24:02;;;;;;;2.30;1.00;;;;;;;6.55;60.99;99834.97;5025809;28;20038;-40
2023/12/24 06:26:28;;;;;;;3.17;0.70;;;;;;;6.56;61.00;99834.06;5025162;28;20116;-40
2023/12/24 06:28:53;;;;;;;2.28;0.52;;;;;;;6.58;61.47;99840.97;5026557;28;20044;-42
2023/12/24 06:31:22;;;;;;;1.17;0.40;;;;;;;6.56;61.53;99833.22;5017724;28;20022;-41
2023/12/24 06:33:48;;;;;;;0.80;0.50;;;;;;;6.52;61.52;99832.53;5022243;28;20697;-42
2023/12/24 06:36:13;;;;;;;0.63;0.20;;;;;;;6.52;61.42;99834.31;5029627;28;20032;-40
2023/12/24 06:38:39;;;;;;;1.40;0.45;;;;;;;6.55;61.42;99831.53;5023209;28;20078;-41
2023/12/24 06:41:04;;;;;;;0.98;0.50;;;;;;;6.45;61.87;99828.59;5023494;28;20141;-41
2023/12/24 06:43:29;;;;;;;2.17;0.80;;;;;;;6.42;61.87;99825.31;5027236;28;20037;-40
2023/12/24 06:45:55;;;;;;;1.83;0.52;;;;;;;6.44;61.93;99826.03;5020469;28;20389;-41
2023/12/24 06:48:20;;;;;;;0.85;0.32;;;;;;;6.42;61.84;99826.13;5025817;28;20039;-42
2023/12/24 06:50:45;;;;;;;0.22;0.22;;;;;;;6.33;62.11;99819.66;5021002;28;20034;-39
2023/12/24 06:53:11;;;;;;;0.13;0.13;;;;;;;6.34;62.01;99817.88;5022919;28;20021;-40
2023/12/24 06:55:36;;;;;;;0.13;0.13;;;;;;;6.22;62.46;99801.09;5030904;28;20546;-41
2023/12/24 06:58:03;;;;;;;2.75;0.93;;;;;;;6.30;62.68;99800.69;5028845;28;20149;-42
2023/12/24 07:00:29;;;;;;;4.95;1.50;;;;;;;6.30;62.41;99796.28;5020101;28;20598;-40
2023/12/24 07:02:54;;;;;;;2.28;0.40;;;;;;;6.27;62.53;99785.19;5015751;28;20906;-40
2023/12/24 07:05:20;;;;;;;1.20;0.50;;;;;;;6.21;62.58;99799.41;5016023;28;20168;-40
2023/12/24 07:07:45;;;;;;;0.52;0.20;;;;;;;6.31;62.44;99797.97;5028755;28;20506;-40
2023/12/24 07:10:10;;;;;;;0.43;0.20;;;;;;;6.27;62.33;99780.81;5029577;28;20452;-39
2023/12/24 07:12:36;;;;;;;0.75;0.38;;;;;;;6.26;62.39;99779.13;5020936;28;20099;-41
2023/12/24 07:15:03;;;;;;;0.57;0.25;;;;;;;6.33;62.44;99779.63;5015253;28;20477;-41
2023/12/24 07:17:28;;;;;;;0.57;0.20;;;;;;;6.36;62.25;99769.84;5027667;28;20087;-41
2023/12/24 07:19:53;;;;;;;0.45;0.20;;;;;;;6.30;62.68;99769.34;5027315;28;20306;-40
2023/12/24 07:22:20;;;;;;;0.38;0.22;;;;;;;6.11;62.65;99759.91;5020553;28;20467;-39
2023/12/24 07:24:46;;;;;;;0.95;0.30;;;;;;;6.31;62.89;99768.41;5019263;28;20064;-39
2023/12/24 07:27:11;;;;;;;0.63;0.40;;;;;;;6.33;62.57;99764.78;5027839;28;20029;-41
2023/12/24 07:29:40;;;;;;;0.82;0.30;;;;;;;6.34;62.58;99766.47;5025146;28;20112;-43
2023/12/24 07:32:06;;;;;;;0.28;0.28;;;;;;;6.35;62.34;99768.16;5021454;28;20037;-41
2023/12/24 07:34:31;;;;;;;0.20;0.20;;;;;;;6.27;62.92;99754.69;5010529;28;20449;-41
2023/12/24 07:36:56;;;;;;;0.30;0.30;;;;;;;6.23;62.96;99742.72;5012540;28;20045;-40
2023/12/24 07:39:22;;;;;;;0.60;0.22;;;;;;;6.22;62.96;99746.25;5021081;28;20034;-41
2023/12/24 07:41:47;;;;;;;0.73;0.40;;;;;;;6.18;63.30;99747.34;5023079;28;20459;-41
2023/12/24 07:44:13;;;;;;;0.63;0.32;;;;;;;6.19;63.20;99735.97;5021786;28;20124;-40
2023/12/24 07:46:38;;;;;;;0.65;0.45;;;;;;;6.15;63.13;99735.31;5005719;28;20040;-42
2023/12/24 07:49:03;;;;;;;0.40;0.30;;;;;;;6.18;63.55;99723.81;5017483;28;20033;-41
2023/12/24 07:51:29;;;;;;;0.20;0.20;;;;;;;6.18;63.49;99721.22;5022790;28;20033;-40
2023/12/24 07:53:55;;;;;;;0.38;0.30;;;;;;;6.02;63.84;99723.84;5022002;28;20042;-41
2023/12/24 07:56:20;;;;;;;0.77;0.60;;;;;;;6.17;63.68;99723.00;5025224;28;20033;-42
2023/12/24 07:58:45;;;;;;;1.75;0.57;;;;;;;6.30;63.33;99723.13;5016400;28;20044;-42
2023/12/24 08:01:11;;;;;;;1.02;0.43;;;;;;;6.23;63.11;99714.81;5024878;28;20037;-42
2023/12/24 08:03:37;;;;;;;1.08;0.60;;;;;;;6.10;63.48;99722.50;5020500;28;20395;-40
2023/12/24 08:06:03;;;;;;;3.30;1.63;;;;;;;6.30;63.69;99707.47;5004195;28;20040;-38
2023/12/24 08:08:28;;;;;;;2.22;0.98;;;;;;;6.18;63.76;99700.31;5018543;28;20029;-41
2023/12/24 08:10:53;;;;;;;0.63;0.45;;;;;;;6.22;63.65;99707.06;5003145;28;20040;-38
2023/12/24 08:13:19;;;;;;;1.67;0.60;;;;;;;6.28;63.49;99698.03;5021967;28;20090;-41
2023/12/24 08:15:44;;;;;;;1.08;0.80;;;;;;;6.29;63.57;99702.34;5025680;28;20056;-41
2023/12/24 08:18:09;;;;;;;4.05;1.70;;;;;;;6.39;63.34;99695.66;5022779;28;20086;-43
2023/12/24 08:20:35;;;;;;;3.10;0.98;;;;;;;6.44;62.91;99690.16;5018505;28;20448;-41
2023/12/24 08:23:00;;;;;;;0.73;0.50;;;;;;;6.51;62.83;99694.09;5028582;28;20030;-41
2023/12/24 08:25:26;;;;;;;0.60;0.40;;;;;;;6.58;62.75;99687.59;5022001;28;20033;-42
2023/12/24 08:27:51;;;;;;;0.82;0.30;;;;;;;6.55;62.86;99688.59;5019267;28;20025;-42
2023/12/24 08:30:18;;;;;;;0.32;0.20;;;;;;;6.58;62.73;99684.97;5017820;28;20040;-40
2023/12/24 08:32:43;;;;;;;1.40;0.20;;;;;;;6.61;62.62;99684.78;5019461;28;20026;-41
2023/12/24 08:35:10;;;;;;;0.40;0.30;;;;;;;6.69;62.65;99682.59;5021127;28;20025;-40
2023/12/24 08:37:36;;;;;;;0.30;0.30;;;;;;;6.63;63.13;99674.28;5021262;28;20034;-40
2023/12/24 08:40:02;;;;;;;0.28;0.20;;;;;;;6.74;62.40;99674.47;5016782;28;20083;-41
2023/12/24 08:42:27;;;;;;;0.20;0.20;;;;;;;6.74;62.70;99679.69;5010143;28;20030;-42
2023/12/24 08:44:53;;;;;;;1.60;0.50;;;;;;;6.85;62.38;99658.97;5012883;28;20590;-42
2023/12/24 08:47:18;;;;;;;3.83;1.40;;;;;;;6.76;62.57;99671.75;4997524;28;20095;-40
2023/12/24 08:49:43;;;;;;;3.05;0.90;;;;;;;6.85;62.76;99666.00;5014247;28;20025;-40
2023/12/24 08:52:09;;;;;;;3.08;1.50;;;;;;;6.98;62.18;99671.31;5011105;28;20045;-41
2023/12/24 08:54:35;;;;;;;2.10;0.93;;;;;;;7.02;62.05;99667.59;5010435;28;20404;-38
2023/12/24 08:57:00;;;;;;;3.85;1.65;;;;;;;7.13;61.96;99653.88;5014756;28;20038;-38
2023/12/24 08:59:26;;;;;;;3.20;1.30;;;;;;;7.17;61.55;99640.50;5008892;28;20042;-41
2023/12/24 09:01:53;;;;;;;1.50;0.65;;;;;;;7.20;61.79;99639.47;5011070;28;20072;-40
2023/12/24 09:04:19;;;;;;;1.48;0.70;;;;;;;7.20;61.45;99649.09;5013466;28;21115;-41
2023/12/24 09:06:44;;;;;;;0.98;0.85;;;;;;;7.27;61.73;99638.16;5024132;28;20100;-42
2023/12/24 09:09:11;;;;;;;0.98;0.40;;;;;;;7.34;61.31;99641.25;5021390;28;20025;-41
2023/12/24 09:11:36;;;;;;;4.30;1.65;;;;;;;7.31;61.59;99634.44;5017638;28;20040;-43
2023/12/24 09:14:02;;;;;;;3.65;1.70;;;;;;;7.37;61.43;99634.97;5017275;28;20037;-40
2023/12/24 09:16:28;;;;;;;1.38;0.70;;;;;;;7.39;61.70;99633.97;5018259;28;20029;-40
2023/12/24 09:18:53;;;;;;;0.95;0.63;;;;;;;7.41;61.51;99637.28;5020037;28;20455;-42
2023/12/24 09:21:19;;;;;;;1.35;0.88;;;;;;;7.43;61.49;99631.97;5019155;28;21077;-40
2023/12/24 09:23:44;;;;;;;2.00;1.02;;;;;;;7.45;61.42;99632.72;5022820;28;21065;-41
2023/12/24 09:26:10;;;;;;;1.58;0.70;;;;;;;7.46;61.47;99630.00;5021694;28;20044;-42
2023/12/24 09:28:35;;;;;;;1.75;0.95;;;;;;;7.52;61.27;99633.19;5023187;28;20488;-40
2023/12/24 09:31:00;;;;;;;4.20;1.80;;;;;;;7.56;61.44;99629.44;5016673;28;20033;-40
2023/12/24 09:33:26;;;;;;;2.17;0.90;;;;;;;7.63;61.51;99630.72;5012905;28;20060;-41
2023/12/24 09:35:51;;;;;;;2.55;0.95;;;;;;;7.67;61.13;99626.13;4994678;28;20038;-42
2023/12/24 09:38:17;;;;;;;2.20;0.90;;;;;;;7.73;61.29;99618.72;5017028;28;20114;-43
2023/12/24 09:40:44;;;;;;;3.83;1.60;;;;;;;7.69;61.29;99614.63;5012839;28;20045;-42
2023/12/24 09:43:09;;;;;;;2.80;1.30;;;;;;;7.72;61.33;99616.22;4999339;28;20045;-41
2023/12/24 09:45:34;;;;;;;4.03;1.88;;;;;;;7.70;61.77;99610.22;5023625;28;20397;-41
2023/12/24 09:48:00;;;;;;;5.28;2.33;;;;;;;7.71;61.88;99609.28;5019051;28;20036;-42
2023/12/24 09:50:26;;;;;;;6.28;3.30;;;;;;;7.63;62.51;99608.03;5023890;28;20108;-41
2023/12/24 09:52:52;;;;;;;4.93;2.13;;;;;;;7.63;63.29;99605.41;5024155;28;20049;-43
2023/12/24 09:55:18;;;;;;;2.88;2.17;;;;;;;7.61;63.35;99601.19;5025084;28;20040;-42
2023/12/24 09:57:43;;;;;;;3.75;1.63;;;;;;;7.50;64.00;99601.03;5025535;28;20037;-42
2023/12/24 10:00:10;;;;;;;2.83;1.52;;;;;;;7.62;63.57;99602.88;5018363;28;20094;-40
2023/12/24 10:02:36;;;;;;;3.28;1.50;;;;;;;7.59;63.92;99596.06;5022086;28;20140;-40
2023/12/24 10:05:03;;;;;;;5.28;2.22;;;;;;;7.71;63.67;99593.59;5022045;28;20400;-40
2023/12/24 10:07:38;;;;;;;12.65;3.88;;;;;;;7.72;63.86;99592.66;5025801;28;20033;-40
2023/12/24 10:10:04;;;;;;;10.65;5.20;;;;;;;7.70;64.50;99584.91;5022043;28;20033;-41
2023/12/24 10:12:30;;;;;;;9.02;3.22;;;;;;;7.78;64.20;99581.78;5027920;28;20037;-41
2023/12/24 10:14:58;;;;;;;3.80;2.40;;;;;;;7.78;64.28;99574.75;5011217;28;20112;-41
2023/12/24 10:17:31;;;;;;;3.35;2.10;;;;;;;7.89;64.33;99579.31;5020995;28;20152;-43
2023/12/24 10:19:57;;;;;;;4.88;1.83;;;;;;;7.91;64.59;99579.19;5027217;28;20030;-42
2023/12/24 10:22:23;;;;;;;3.65;1.67;;;;;;;7.98;64.32;99582.25;5021026;28;20029;-42
2023/12/24 10:24:49;;;;;;;4.78;1.40;;;;;;;7.92;65.85;99568.63;5024783;28;20057;-42
2023/12/24 10:27:15;;;;;;;2.58;1.13;;;;;;;7.81;66.58;99563.22;5024954;28;20041;-40
2023/12/24 10:29:42;;;;;;;3.35;1.60;;;;;;;7.90;67.32;99556.56;5023554;28;20032;-42
2023/12/24 10:32:11;;;;;;;2.92;1.30;;;;;;;7.91;67.79;99556.47;5025746;28;20043;-42
2023/12/24 10:34:38;;;;;;;3.25;1.45;;;;;;;8.03;68.05;99551.34;5016562;28;20040;-41
2023/12/24 10:37:26;;;;;;;2.47;1.30;;;;;;;8.08;68.52;99539.63;5040253;28;20029;-40
2023/12/24 10:39:51;;;;;;;2.75;1.20;;;;;;;8.02;69.24;99547.06;5024421;28;20070;-42
2023/12/24 10:42:17;;;;;;;2.03;1.20;;;;;;;8.16;69.67;99543.53;5019026;28;20049;-43
2023/12/24 10:44:42;;;;;;;5.55;2.58;;;;;;;8.31;68.80;99541.66;5024043;28;20071;-44
2023/12/24 10:47:08;;;;;;;2.33;1.40;;;;;;;8.32;68.24;99543.31;5021597;28;20029;-42
2023/12/24 10:49:34;;;;;;;2.63;1.58;;;;;;;8.24;69.33;99547.28;5025021;28;20033;-42
2023/12/24 10:51:59;;;;;;;2.75;1.15;;;;;;;8.41;69.12;99541.88;5025396;28;20037;-43
2023/12/24 10:54:25;;;;;;;2.63;1.48;;;;;;;8.54;68.57;99547.97;5018288;28;20561;-42
2023/12/24 10:57:03;;;;;;;1.77;0.80;;;;;;;8.54;69.10;99529.63;5022630;28;20037;-41
2023/12/24 11:00:06;;;;;;;2.63;1.10;;;;;;;8.71;70.34;99517.97;5041113;28;20504;-41
2023/12/24 11:02:33;;;;;;;2.25;1.20;;;;;;;8.74;70.73;99523.00;5025646;28;20190;-42
2023/12/24 11:04:58;;;;;;;2.08;0.93;;;;;;;8.82;71.02;99520.69;5018300;28;20105;-41
2023/12/24 11:07:33;;;;;;;2.30;1.35;;;;;;;8.93;72.70;99517.28;5024893;28;20037;-40
2023/12/24 11:10:04;;;;;;;2.03;1.20;;;;;;;9.26;70.79;99509.78;5027639;28;20525;-42
2023/12/24 11:12:35;;;;;;;1.77;0.97;;;;;;;9.29;70.67;99512.19;5017513;28;20044;-43
2023/12/24 11:15:01;;;;;;;2.67;1.23;;;;;;;9.33;71.38;99508.38;5024500;28;20131;-41
2023/12/24 11:17:36;;;;;;;3.63;1.55;;;;;;;9.55;72.20;99497.13;5025475;28;20052;-39
2023/12/24 11:20:16;;;;;;;1.77;0.90;;;;;;;9.91;71.56;99500.63;5024538;28;20396;-35
2023/12/24 11:23:02;;;;;;;2.38;1.00;;;;;;;10.10;71.44;99501.00;5019847;28;20044;-35
2023/12/24 11:25:47;;;;;;;1.08;0.65;;;;;;;10.02;71.47;99499.81;5021926;28;20033;-35
2023/12/24 11:28:24;;;;;;;1.10;0.57;;;;;;;10.01;73.30;99498.16;4991531;28;20021;-36
2023/12/24 11:30:50;;;;;;;1.50;0.65;;;;;;;10.14;73.11;99495.41;5019104;28;20036;-36
2023/12/24 11:33:36;;;;;;;1.10;0.60;;;;;;;10.44;72.74;99487.97;5020287;28;20392;-37
2023/12/24 11:36:09;;;;;;;1.02;0.50;;;;;;;10.61;72.91;99476.97;5019052;28;20060;-37
2023/12/24 11:38:35;;;;;;;1.25;0.82;;;;;;;10.63;72.79;99468.94;5023901;28;21314;-37